Atkinville, UT

1:02 PM MST on December 08, 2016 (GMT -0700)
Saint George | | Change Station

Elev 2526 ft 37.03 °N, 113.62 °W | Updated 1 second ago

Partly Cloudy
Partly Cloudy
50.7 °F
Feels Like 50.7 °F
N
0.9
Wind Variable Wind from NNW
Gusts 2.5 mph

Today
High -- | Low -- °F
--% Chance of Precip.
Yesterday
High -- | Low -- °F
Precip. -- in
Pressure 30.28 in
Visibility 10.0 miles
Clouds Scattered Clouds 12000 ft
Dew Point 12 °F
Humidity 21%
Rainfall 0.00 in
Snow Depth Not available.
7:35 AM 5:17 PM
Waxing Gibbous, 66% visible
METAR KSGU 081955Z 00000KT 10SM SCT120 06/M09 A3028 RMK AO1
Pressure 30.28 in
Visibility 10.0 miles
Clouds Scattered Clouds 12000 ft
Dew Point 12 °F
Humidity 21%
Rainfall 0.00 in
Snow Depth Not available.
7:35 AM 5:17 PM
Waxing Gibbous, 66% visible
METAR KSGU 081955Z 00000KT 10SM SCT120 06/M09 A3028 RMK AO1

10-Day Weather Forecast

Almanac

Astronomy

Dec. 08, 2016 Rise Set
Actual Time
Civil Twilight
Nautical Twilight
Astronomical Twilight
Moon
Length of Visible Light
Length of Day
Tomorrow will be .
, % of the Moon is Illuminated

Today's Extremes

State Highs State Lows

Community

WunderPhotos

Upload Photos

1,956,277 photos uploaded!

WunderBlog® & News

Nearby

Air Quality

  Air Quality AQ Index Pollutant
Not available.

Snow Depth

Station Depth Elevation

Earthquake Activity

City Distance Mag. Time & Date
Minimum magnitude displayed is 2.5.

Coastal Water Temperatures

Place Temperature

Stations

Nearby Weather Stations

Station Location Temp. Windchill Dew Point Humidity Wind Precip. Elev Updated Type
                   

Watches & Warnings

There are currently no watches in effect.